createdAt,value
2022-11-25T00:01:34.689Z,0.28
2022-11-25T00:04:22.505Z,0.30
2022-11-25T00:07:10.461Z,0.36
2022-11-25T00:09:58.119Z,0.36
2022-11-25T00:12:45.516Z,0.36
2022-11-25T00:15:34.169Z,0.37
2022-11-25T00:18:21.612Z,0.38
2022-11-25T00:21:12.451Z,0.40
2022-11-25T00:24:06.843Z,0.43
2022-11-25T00:26:54.504Z,0.49
2022-11-25T00:29:42.577Z,0.53
2022-11-25T00:32:31.110Z,0.56
2022-11-25T00:35:20.079Z,0.57
2022-11-25T00:38:07.946Z,0.60
2022-11-25T00:41:13.664Z,0.58
2022-11-25T00:44:19.758Z,0.55
2022-11-25T00:47:11.427Z,0.52
2022-11-25T00:49:58.735Z,0.51
2022-11-25T00:52:46.784Z,0.53
2022-11-25T00:55:54.112Z,0.53
2022-11-25T00:58:43.527Z,0.54
2022-11-25T01:01:31.587Z,0.57
2022-11-25T01:04:19.551Z,0.60
2022-11-25T01:07:07.597Z,0.61
2022-11-25T01:09:55.405Z,0.61
2022-11-25T01:12:47.884Z,0.59
2022-11-25T01:15:37.950Z,0.57
2022-11-25T01:18:25.566Z,0.50
2022-11-25T01:21:21.441Z,0.44
2022-11-25T01:24:12.937Z,0.40
2022-11-25T01:27:00.545Z,0.42
2022-11-25T01:29:50.605Z,0.47
2022-11-25T01:32:37.944Z,0.48
2022-11-25T01:35:27.345Z,0.47
2022-11-25T01:38:14.649Z,0.46
2022-11-25T01:41:03.778Z,0.43
2022-11-25T01:44:22.361Z,0.40
2022-11-25T01:47:23.550Z,0.40
2022-11-25T01:50:13.153Z,0.43
2022-11-25T01:53:04.110Z,0.46
2022-11-25T01:56:01.403Z,0.48
2022-11-25T01:58:49.556Z,0.49
2022-11-25T02:01:37.017Z,0.49
2022-11-25T02:04:32.554Z,0.48
2022-11-25T02:07:31.565Z,0.47
2022-11-25T02:10:27.367Z,0.49
2022-11-25T02:13:15.703Z,0.53
2022-11-25T02:16:03.707Z,0.58
2022-11-25T02:18:52.050Z,0.62
2022-11-25T02:21:54.731Z,0.64
2022-11-25T02:24:50.171Z,0.65
2022-11-25T02:27:37.775Z,0.63
2022-11-25T02:30:25.465Z,0.60
2022-11-25T02:33:15.907Z,0.57
2022-11-25T02:36:15.913Z,0.55
2022-11-25T02:39:04.459Z,0.56
2022-11-25T02:41:58.147Z,0.54
2022-11-25T02:44:45.699Z,0.55
2022-11-25T02:47:33.216Z,0.54
2022-11-25T02:50:20.936Z,0.54
2022-11-25T02:53:08.850Z,0.52
2022-11-25T02:55:57.577Z,0.44
2022-11-25T02:58:45.540Z,0.41
2022-11-25T03:01:33.495Z,0.38
2022-11-25T03:04:21.025Z,0.34
2022-11-25T03:07:08.498Z,0.30
2022-11-25T03:09:56.057Z,0.29
2022-11-25T03:12:43.510Z,0.30
2022-11-25T03:15:31.300Z,0.36
2022-11-25T03:18:19.136Z,0.40
2022-11-25T03:21:08.200Z,0.45
2022-11-25T03:23:55.633Z,0.47
2022-11-25T03:26:43.240Z,0.48
2022-11-25T03:29:30.932Z,0.46
2022-11-25T03:32:18.363Z,0.45
2022-11-25T03:35:07.272Z,0.46
2022-11-25T03:37:55.333Z,0.48
2022-11-25T03:40:43.307Z,0.51
2022-11-25T03:43:31.285Z,0.56
2022-11-25T03:46:18.999Z,0.61
2022-11-25T03:49:07.239Z,0.63
2022-11-25T03:51:55.420Z,0.67
2022-11-25T03:54:43.380Z,0.68
2022-11-25T03:57:42.636Z,0.69
2022-11-25T04:00:31.088Z,0.70
2022-11-25T04:03:21.267Z,0.69
2022-11-25T04:06:09.883Z,0.69
2022-11-25T04:08:59.334Z,0.69
2022-11-25T04:12:05.925Z,0.67
2022-11-25T04:15:03.071Z,0.66
2022-11-25T04:17:53.346Z,0.66
2022-11-25T04:20:41.203Z,0.67
2022-11-25T04:23:28.944Z,0.68
2022-11-25T04:26:23.523Z,0.67
2022-11-25T04:29:11.294Z,0.69
2022-11-25T04:31:59.529Z,0.67
2022-11-25T04:34:47.298Z,0.64
2022-11-25T04:37:35.097Z,0.62
2022-11-25T04:40:23.161Z,0.57
2022-11-25T04:43:17.026Z,0.50
2022-11-25T04:46:19.581Z,0.48
2022-11-25T04:49:11.119Z,0.50
2022-11-25T04:51:59.245Z,0.52
2022-11-25T04:54:47.069Z,0.53
2022-11-25T04:57:35.002Z,0.56
2022-11-25T05:00:23.721Z,0.60
2022-11-25T05:03:12.258Z,0.62
2022-11-25T05:05:59.819Z,0.66
2022-11-25T05:08:51.263Z,0.66
2022-11-25T05:11:39.282Z,0.66
2022-11-25T05:14:26.738Z,0.68
2022-11-25T05:17:18.225Z,0.69
2022-11-25T05:20:07.141Z,0.69
2022-11-25T05:22:54.970Z,0.71
2022-11-25T05:25:42.880Z,0.69
2022-11-25T05:28:57.177Z,0.69
2022-11-25T05:31:44.824Z,0.66
2022-11-25T05:34:34.241Z,0.62
2022-11-25T05:37:24.489Z,0.56
2022-11-25T05:40:16.690Z,0.51
2022-11-25T05:43:10.527Z,0.42
2022-11-25T05:45:59.574Z,0.35
2022-11-25T05:48:47.416Z,0.29
2022-11-25T05:51:35.534Z,0.25
2022-11-25T05:54:23.874Z,0.21
2022-11-25T05:57:11.684Z,0.19
2022-11-25T06:00:16.109Z,0.19
2022-11-25T06:03:05.841Z,0.18
2022-11-25T06:05:56.080Z,0.14
2022-11-25T06:08:44.611Z,0.10
2022-11-25T06:11:32.457Z,0.06
2022-11-25T06:14:19.969Z,0.07
2022-11-25T06:17:08.015Z,0.08
2022-11-25T06:20:01.127Z,0.04
2022-11-25T06:22:48.745Z,0.04
2022-11-25T06:25:40.981Z,0.04
2022-11-25T06:28:28.876Z,0.04
2022-11-25T06:31:24.430Z,0.04
2022-11-25T06:34:23.921Z,0.09
2022-11-25T06:37:11.427Z,0.15
2022-11-25T06:39:58.945Z,0.21
2022-11-25T06:42:46.653Z,0.23
2022-11-25T06:45:34.334Z,0.24
2022-11-25T06:48:21.896Z,0.25
2022-11-25T06:51:12.368Z,0.27
2022-11-25T06:53:59.956Z,0.29
2022-11-25T06:56:53.741Z,0.31
2022-11-25T06:59:41.442Z,0.33
2022-11-25T07:02:30.684Z,0.37
2022-11-25T07:05:20.268Z,0.34
2022-11-25T07:08:07.740Z,0.34
2022-11-25T07:10:55.812Z,0.38
2022-11-25T07:13:44.517Z,0.39
2022-11-25T07:16:33.248Z,0.38
2022-11-25T07:19:20.960Z,0.41
2022-11-25T07:22:09.133Z,0.46
2022-11-25T07:24:57.162Z,0.50
2022-11-25T07:27:44.939Z,0.56
2022-11-25T07:33:39.944Z,0.65
2022-11-25T07:36:29.979Z,0.67
2022-11-25T07:39:21.815Z,0.73
2022-11-25T07:42:09.328Z,0.97
2022-11-25T07:44:57.247Z,1.09
2022-11-25T07:48:06.501Z,1.09
2022-11-25T07:50:56.467Z,1.09
2022-11-25T07:53:45.251Z,1.09
2022-11-25T07:56:35.619Z,1.06
2022-11-25T07:59:24.657Z,1.00
2022-11-25T08:02:12.548Z,0.95
2022-11-25T08:05:00.403Z,0.94
2022-11-25T08:07:48.092Z,0.94
2022-11-25T08:10:41.689Z,0.93
2022-11-25T08:13:29.152Z,0.94
2022-11-25T08:16:20.986Z,0.96
2022-11-25T08:19:13.788Z,0.98
2022-11-25T08:22:01.264Z,0.99
2022-11-25T08:24:48.827Z,0.97
2022-11-25T08:27:36.832Z,0.98
2022-11-25T08:30:27.213Z,0.95
2022-11-25T08:33:14.812Z,0.97
2022-11-25T08:36:03.181Z,0.98
2022-11-25T08:38:53.881Z,0.98
2022-11-25T08:41:41.866Z,1.00
2022-11-25T08:44:30.380Z,1.04
2022-11-25T08:47:17.987Z,1.06
2022-11-25T08:50:11.067Z,1.09
2022-11-25T08:52:59.823Z,1.09
2022-11-25T08:55:47.810Z,1.09
2022-11-25T08:58:36.928Z,1.09
2022-11-25T09:01:25.322Z,1.09
2022-11-25T09:04:12.648Z,1.12
2022-11-25T09:07:01.084Z,1.16
2022-11-25T09:09:49.585Z,1.19
2022-11-25T09:12:36.883Z,1.22
2022-11-25T09:15:24.575Z,1.23
2022-11-25T09:18:12.275Z,1.22
2022-11-25T09:21:00.252Z,1.22
2022-11-25T09:23:51.306Z,1.22
2022-11-25T09:26:41.169Z,1.21
2022-11-25T09:29:30.262Z,1.23
2022-11-25T09:32:17.887Z,1.26
2022-11-25T09:35:06.268Z,1.26
2022-11-25T09:37:53.854Z,1.25
2022-11-25T09:41:16.081Z,1.26
2022-11-25T09:44:40.753Z,1.29
2022-11-25T09:47:55.703Z,1.33
2022-11-25T09:51:03.201Z,1.37
2022-11-25T09:53:56.684Z,1.39
2022-11-25T09:57:15.583Z,1.38
2022-11-25T10:00:12.716Z,1.36
2022-11-25T10:03:35.778Z,1.35
2022-11-25T10:06:36.333Z,1.34
2022-11-25T10:09:34.109Z,1.36
2022-11-25T10:12:30.947Z,1.38
2022-11-25T10:15:27.428Z,1.42
2022-11-25T10:18:45.573Z,1.41
2022-11-25T10:21:33.157Z,1.41
2022-11-25T10:24:21.677Z,1.41
2022-11-25T10:27:22.476Z,1.42
2022-11-25T10:30:22.241Z,1.41
2022-11-25T10:33:37.882Z,1.39
2022-11-25T10:36:36.887Z,1.41
2022-11-25T10:39:29.198Z,1.42
2022-11-25T10:42:24.562Z,1.35
2022-11-25T10:45:12.562Z,1.38
2022-11-25T10:48:44.351Z,1.41
2022-11-25T10:51:47.251Z,1.40
2022-11-25T10:54:35.118Z,1.40
2022-11-25T10:57:28.775Z,1.42
2022-11-25T11:00:38.416Z,1.45
2022-11-25T11:03:27.069Z,1.49
2022-11-25T11:06:36.524Z,1.54
2022-11-25T11:09:38.286Z,1.58
2022-11-25T11:12:29.705Z,1.58
2022-11-25T11:15:30.898Z,1.58
2022-11-25T11:18:29.254Z,1.62
2022-11-25T11:21:41.823Z,1.65
2022-11-25T11:24:42.570Z,1.70
2022-11-25T11:27:30.470Z,1.75
2022-11-25T11:30:23.334Z,1.79
2022-11-25T11:33:37.059Z,1.79
2022-11-25T11:36:33.431Z,1.76
2022-11-25T11:40:07.276Z,1.73
2022-11-25T11:43:33.569Z,1.65
2022-11-25T11:46:30.952Z,1.64
2022-11-25T11:50:01.354Z,1.60
2022-11-25T11:53:20.945Z,1.65
2022-11-25T11:56:35.633Z,1.69
2022-11-25T11:59:56.075Z,1.71
2022-11-25T12:03:12.565Z,1.67
2022-11-25T12:06:04.574Z,1.65
2022-11-25T12:09:04.589Z,1.61
2022-11-25T12:12:00.624Z,1.57
2022-11-25T12:14:53.982Z,1.56
2022-11-25T12:17:48.719Z,1.58
2022-11-25T12:21:06.000Z,1.60
2022-11-25T12:24:31.388Z,1.65
2022-11-25T12:27:31.652Z,1.68
2022-11-25T12:30:24.158Z,1.69
2022-11-25T12:33:41.753Z,1.72
2022-11-25T12:36:35.207Z,1.69
2022-11-25T12:39:38.578Z,1.68
2022-11-25T12:42:28.917Z,1.69
2022-11-25T12:45:25.901Z,1.72
2022-11-25T12:48:17.340Z,1.75
2022-11-25T12:51:14.919Z,1.75
2022-11-25T12:54:21.353Z,1.75
2022-11-25T12:57:27.754Z,1.76
2022-11-25T13:00:47.070Z,1.75
2022-11-25T13:04:29.163Z,1.70
2022-11-25T13:07:34.775Z,1.67
2022-11-25T13:10:43.732Z,1.68
2022-11-25T13:13:49.437Z,1.67
2022-11-25T13:16:37.970Z,1.69
2022-11-25T13:19:26.069Z,1.71
2022-11-25T13:22:23.671Z,1.71
2022-11-25T13:25:26.980Z,1.71
2022-11-25T13:28:38.333Z,1.70
2022-11-25T13:31:33.318Z,1.63
2022-11-25T13:34:20.862Z,1.60
2022-11-25T13:37:40.286Z,1.59
2022-11-25T13:40:30.004Z,1.58
2022-11-25T13:43:22.592Z,1.57
2022-11-25T13:46:33.144Z,1.57
2022-11-25T13:49:25.105Z,1.58
2022-11-25T13:52:12.767Z,1.59
2022-11-25T13:55:21.059Z,1.57
2022-11-25T13:58:23.870Z,1.56
2022-11-25T14:01:29.944Z,1.55
2022-11-25T14:04:36.128Z,1.55
2022-11-25T14:08:08.275Z,1.54
2022-11-25T14:11:11.473Z,1.50
2022-11-25T14:14:14.008Z,1.49
2022-11-25T14:17:38.407Z,1.47
2022-11-25T14:20:55.953Z,1.48
2022-11-25T14:24:24.012Z,1.48
2022-11-25T14:27:34.051Z,1.49
2022-11-25T14:30:21.741Z,1.47
2022-11-25T14:33:16.585Z,1.46
2022-11-25T14:36:22.920Z,1.46
2022-11-25T14:39:31.749Z,1.48
2022-11-25T14:42:24.035Z,1.50
2022-11-25T14:45:26.423Z,1.48
2022-11-25T14:48:22.048Z,1.44
2022-11-25T14:51:15.899Z,1.38
2022-11-25T14:54:09.974Z,1.32
2022-11-25T14:56:58.970Z,1.27
2022-11-25T14:59:47.084Z,1.25
2022-11-25T15:02:40.180Z,1.22
2022-11-25T15:05:38.685Z,1.22
2022-11-25T15:08:26.902Z,1.26
2022-11-25T15:11:21.404Z,1.30
2022-11-25T15:14:27.436Z,1.35
2022-11-25T15:17:31.083Z,1.40
2022-11-25T15:20:19.036Z,1.42
2022-11-25T15:23:14.664Z,1.42
2022-11-25T15:26:04.847Z,1.42
2022-11-25T15:28:59.448Z,1.40
2022-11-25T15:31:50.480Z,1.41
2022-11-25T15:34:38.417Z,1.43
2022-11-25T15:37:27.135Z,1.45
2022-11-25T15:40:44.408Z,1.46
2022-11-25T15:43:34.691Z,1.46
2022-11-25T15:46:24.091Z,1.44
2022-11-25T15:49:17.485Z,1.41
2022-11-25T15:52:18.039Z,1.37
2022-11-25T15:55:20.103Z,1.38
2022-11-25T15:58:17.925Z,1.38
2022-11-25T16:01:19.423Z,1.39
2022-11-25T16:04:21.354Z,1.41
2022-11-25T16:07:23.713Z,1.46
2022-11-25T16:10:50.861Z,1.50
2022-11-25T16:13:39.791Z,1.52
2022-11-25T16:16:30.645Z,1.51
2022-11-25T16:19:22.638Z,1.51
2022-11-25T16:22:20.427Z,1.50
2022-11-25T16:25:10.928Z,1.50
2022-11-25T16:28:00.759Z,1.50
2022-11-25T16:30:48.680Z,1.51
2022-11-25T16:33:36.602Z,1.52
2022-11-25T16:36:24.072Z,1.52
2022-11-25T16:39:12.695Z,1.54
2022-11-25T16:42:04.197Z,1.56
2022-11-25T16:44:52.842Z,1.55
2022-11-25T16:47:40.303Z,1.52
2022-11-25T16:50:28.102Z,1.50
2022-11-25T16:53:18.148Z,1.47
2022-11-25T16:56:07.030Z,1.45
2022-11-25T16:58:55.678Z,1.45
2022-11-25T17:01:43.829Z,1.46
2022-11-25T17:04:31.732Z,1.47
2022-11-25T17:07:35.733Z,1.46
2022-11-25T17:10:23.688Z,1.47
2022-11-25T17:13:25.803Z,1.49
2022-11-25T17:16:23.219Z,1.48
2022-11-25T17:19:16.459Z,1.46
2022-11-25T17:22:17.174Z,1.44
2022-11-25T17:25:06.112Z,1.44
2022-11-25T17:27:55.540Z,1.43
2022-11-25T17:30:45.213Z,1.45
2022-11-25T17:33:33.582Z,1.46
2022-11-25T17:36:21.888Z,1.46
2022-11-25T17:39:14.421Z,1.45
2022-11-25T17:42:02.730Z,1.42
2022-11-25T17:44:54.141Z,1.38
2022-11-25T17:47:43.512Z,1.34
2022-11-25T17:50:31.705Z,1.30
2022-11-25T17:53:19.594Z,1.28
2022-11-25T17:56:32.507Z,1.25
2022-11-25T17:59:27.204Z,1.22
2022-11-25T18:02:21.491Z,1.20
2022-11-25T18:05:22.573Z,1.15
2022-11-25T18:08:10.786Z,1.11
2022-11-25T18:11:00.973Z,1.09
2022-11-25T18:13:48.965Z,1.05
2022-11-25T18:16:36.917Z,0.99
2022-11-25T18:19:24.921Z,0.93
2022-11-25T18:22:19.810Z,0.86
2022-11-25T18:25:12.792Z,0.76
2022-11-25T18:28:01.604Z,0.69
2022-11-25T18:30:50.273Z,0.64
2022-11-25T18:33:38.222Z,0.60
2022-11-25T18:36:25.648Z,0.55
2022-11-25T18:39:13.956Z,0.48
2022-11-25T18:42:02.123Z,0.41
2022-11-25T18:44:50.154Z,0.37
2022-11-25T18:47:38.635Z,0.31
2022-11-25T18:50:27.442Z,0.27
2022-11-25T18:53:36.082Z,0.25
2022-11-25T18:56:24.020Z,0.23
2022-11-25T18:59:19.625Z,0.22
2022-11-25T19:02:21.689Z,0.21
2022-11-25T19:05:33.655Z,0.19
2022-11-25T19:08:21.458Z,0.21
2022-11-25T19:11:32.047Z,0.22
2022-11-25T19:14:37.585Z,0.23
2022-11-25T19:17:26.209Z,0.25
2022-11-25T19:20:21.315Z,0.27
2022-11-25T19:23:28.040Z,0.32
2022-11-25T19:26:23.908Z,0.35
2022-11-25T19:29:20.113Z,0.39
2022-11-25T19:32:20.211Z,0.45
2022-11-25T19:35:14.496Z,0.51
2022-11-25T19:38:05.669Z,0.54
2022-11-25T19:40:57.585Z,0.55
2022-11-25T19:43:45.726Z,0.55
2022-11-25T19:47:07.128Z,0.57
2022-11-25T19:49:45.769Z,0.60
2022-11-25T19:52:40.555Z,0.63
2022-11-25T19:55:30.039Z,0.63
2022-11-25T19:58:17.859Z,0.61
2022-11-25T20:01:12.388Z,0.60
2022-11-25T20:04:04.150Z,0.59
2022-11-25T20:06:52.065Z,0.58
2022-11-25T20:09:40.683Z,0.58
2022-11-25T20:12:29.970Z,0.56
2022-11-25T20:15:18.069Z,0.54
2022-11-25T20:18:06.702Z,0.55
2022-11-25T20:21:04.292Z,0.57
2022-11-25T20:23:52.411Z,0.57
2022-11-25T20:26:42.921Z,0.60
2022-11-25T20:29:30.883Z,0.65
2022-11-25T20:32:30.461Z,0.71
2022-11-25T20:35:19.325Z,0.77
2022-11-25T20:38:15.653Z,0.82
2022-11-25T20:41:04.396Z,0.85
2022-11-25T20:43:51.997Z,0.87
2022-11-25T20:46:40.002Z,0.90
2022-11-25T20:49:29.348Z,0.94
2022-11-25T20:52:26.699Z,0.95
2022-11-25T20:55:24.141Z,0.96
2022-11-25T20:58:35.345Z,1.00
2022-11-25T21:01:25.524Z,1.01
2022-11-25T21:04:13.636Z,1.03
2022-11-25T21:07:01.839Z,1.02
2022-11-25T21:09:52.106Z,1.01
2022-11-25T21:12:40.281Z,0.96
2022-11-25T21:15:29.373Z,0.93
2022-11-25T21:18:20.743Z,0.89
2022-11-25T21:21:34.600Z,0.88
2022-11-25T21:24:38.688Z,0.88
2022-11-25T21:27:27.026Z,0.87
2022-11-25T21:30:28.394Z,0.85
2022-11-25T21:33:18.800Z,0.84
2022-11-25T21:36:35.978Z,0.89
2022-11-25T21:39:33.691Z,0.86
2022-11-25T21:42:25.131Z,0.83
2022-11-25T21:45:17.875Z,0.83
2022-11-25T21:48:31.848Z,0.81
2022-11-25T21:51:30.090Z,0.83
2022-11-25T21:54:18.107Z,0.89
2022-11-25T21:57:13.453Z,0.94
2022-11-25T22:00:18.256Z,0.97
2022-11-25T22:03:20.627Z,1.01
2022-11-25T22:06:32.124Z,1.04
2022-11-25T22:09:26.984Z,1.09
2022-11-25T22:12:28.315Z,1.12
2022-11-25T22:15:20.589Z,1.13
2022-11-25T22:18:22.643Z,1.07
2022-11-25T22:21:14.974Z,1.04
2022-11-25T22:24:08.954Z,1.06
2022-11-25T22:26:58.279Z,1.08
2022-11-25T22:29:47.019Z,1.10
2022-11-25T22:32:34.495Z,1.12
2022-11-25T22:35:33.312Z,1.17
2022-11-25T22:38:29.632Z,1.20
2022-11-25T22:41:17.322Z,1.19
2022-11-25T22:44:05.794Z,1.20
2022-11-25T22:46:53.927Z,1.21
2022-11-25T22:49:47.732Z,1.21
2022-11-25T22:52:36.293Z,1.19
2022-11-25T22:55:33.032Z,1.18
2022-11-25T22:58:20.627Z,1.17
2022-11-25T23:01:14.550Z,1.15
2022-11-25T23:04:03.193Z,1.14
2022-11-25T23:06:51.898Z,1.14
2022-11-25T23:09:39.595Z,1.16
2022-11-25T23:12:30.684Z,1.17
2022-11-25T23:15:21.952Z,1.17
2022-11-25T23:18:17.649Z,1.17
2022-11-25T23:21:14.304Z,1.11
2022-11-25T23:24:04.724Z,1.06
2022-11-25T23:26:52.253Z,1.04
2022-11-25T23:29:39.900Z,1.05
2022-11-25T23:32:28.062Z,1.08
2022-11-25T23:35:29.494Z,1.10
2022-11-25T23:38:22.861Z,1.14
2022-11-25T23:41:20.578Z,1.17
2022-11-25T23:44:21.669Z,1.20
2022-11-25T23:47:21.660Z,1.22
2022-11-25T23:50:27.431Z,1.24
2022-11-25T23:53:28.528Z,1.23
2022-11-25T23:56:16.318Z,1.22
2022-11-25T23:59:12.193Z,1.22
